Elmdale, KS (66850)

2:49 PM CDT on May 06, 2015 (GMT -0500)
Marion County Lake | | Change Station
CLOSE
Current Station
Personal Weather Station
Location: Marion, KS
Elevation: 1362 ft
Nearby Weather Stations

Elev 1362 ft 38.32 °N, 96.99 °W | Updated 5 seconds ago

Overcast
Overcast
73.2 °F
Feels Like 75 °F
N
9.2
Wind Variable Wind from North
Gusts 13.0 mph

Today
High -- | Low -- °F
--% Chance of Precip.
Yesterday
High -- | Low -- °F
Precip. -- in
6:24 AM 8:22 PM
Waning Gibbous, 93% visible
Pressure 29.87 in
Visibility 10.0 miles
Clouds Overcast 1500 ft
Heat Index 75 °F
Dew Point 64 °F
Humidity 74%
Rainfall 0.00 in
Snow Depth Not available.
UV 3 out of 12
Pollen 4.10 out of 12
Air Quality Not available.
Flu Activity Sporadic
METAR KEMP 061853Z AUTO 16024G30KT 10SM OVC015 20/17 A2988 RMK AO2 PK WND 16030/1852 SLP113 T02000167

More Conditions Fewer Conditions

Pressure 29.87 in
Visibility 10.0 miles
Clouds Overcast 1500 ft
Heat Index 75 °F
Dew Point 64 °F
Humidity 74%
Rainfall 0.00 in
Snow Depth Not available.
UV 3 out of 12
Pollen 4.10 out of 12
Air Quality Not available.
Flu Activity Sporadic
METAR KEMP 061853Z AUTO 16024G30KT 10SM OVC015 20/17 A2988 RMK AO2 PK WND 16030/1852 SLP113 T02000167

More Conditions Fewer Conditions

The Storm Prediction Center has issued an enhanced risk of severe weather for parts of central Texas, Oklahoma, Kansas, and southern Nebraska. Severe thunderstorms could form strong tornadoes, large hail, heavy rain, and strong wind into the evening. An area of slight risk of severe weather encompasses this enhanced area.

10-Day Weather Forecast

Almanac

Astronomy

May. 06, 2015 Rise Set
Actual Time
Civil Twilight
Nautical Twilight
Astronomical Twilight
Moon
Length of Visible Light
Length of Day
Tomorrow will be .
, % of the Moon is Illuminated

Today's Extremes

State Highs State Lows

Community

WunderPhotos

Upload Photos

1,819,003 photos uploaded!

WunderBlogs® & News

Nearby

Air Quality

  Air Quality AQ Index Pollutant
Not available.

Snow Depth

Station Depth Elevation

Earthquake Activity

City Distance Mag. Time & Date
Minimum magnitude displayed is 2.5.

Coastal Water Temperatures

Place Temperature

Stations

Nearby Weather Stations

Station Location Temp. Windchill Dew Point Humidity Wind Precip. Elev Updated Type